createdAt,value
2023-02-22T00:00:56.255Z,25.48
2023-02-22T00:03:32.227Z,37.40
2023-02-22T00:06:04.284Z,23.63
2023-02-22T00:08:34.160Z,35.63
2023-02-22T00:11:03.601Z,22.10
2023-02-22T00:13:31.402Z,26.70
2023-02-22T00:16:00.082Z,18.63
2023-02-22T00:18:29.173Z,24.75
2023-02-22T00:21:00.469Z,35.33
2023-02-22T00:23:29.760Z,28.77
2023-02-22T00:28:25.036Z,31.45
2023-02-22T00:30:52.751Z,30.70
2023-02-22T00:33:20.375Z,25.38
2023-02-22T00:35:47.695Z,28.00
2023-02-22T00:38:17.013Z,32.95
2023-02-22T00:40:45.415Z,25.92
2023-02-22T00:43:12.658Z,29.03
2023-02-22T00:45:39.915Z,25.90
2023-02-22T00:48:08.653Z,21.15
2023-02-22T00:50:36.011Z,37.30
2023-02-22T00:53:04.914Z,29.85
2023-02-22T00:55:38.150Z,31.83
2023-02-22T00:58:06.434Z,29.05
2023-02-22T01:00:37.359Z,26.38
2023-02-22T01:03:06.439Z,33.90
2023-02-22T01:05:34.145Z,24.25
2023-02-22T01:08:02.450Z,25.45
2023-02-22T01:10:31.305Z,34.25
2023-02-22T01:12:59.883Z,27.15
2023-02-22T01:15:30.641Z,28.02
2023-02-22T01:17:59.473Z,20.30
2023-02-22T01:20:27.584Z,20.65
2023-02-22T01:22:56.586Z,37.15
2023-02-22T01:25:26.506Z,25.95
2023-02-22T01:27:54.705Z,26.65
2023-02-22T01:30:25.136Z,33.60
2023-02-22T01:32:53.164Z,19.17
2023-02-22T01:35:23.601Z,34.35
2023-02-22T01:37:51.020Z,37.95
2023-02-22T01:40:24.279Z,45.05
2023-02-22T01:42:57.771Z,38.17
2023-02-22T01:45:31.325Z,36.63
2023-02-22T01:48:28.972Z,39.22
2023-02-22T01:51:16.801Z,29.33
2023-02-22T01:54:01.247Z,42.33
2023-02-22T01:56:31.468Z,39.75
2023-02-22T01:59:11.299Z,37.08
2023-02-22T02:01:42.899Z,41.22
2023-02-22T02:04:15.536Z,39.00
2023-02-22T02:06:43.517Z,28.65
2023-02-22T02:09:16.889Z,33.70
2023-02-22T02:11:48.438Z,33.15
2023-02-22T02:14:15.939Z,36.10
2023-02-22T02:16:46.438Z,31.58
2023-02-22T02:19:31.984Z,31.77
2023-02-22T02:22:22.121Z,34.72
2023-02-22T02:25:05.266Z,33.72
2023-02-22T02:28:02.776Z,25.95
2023-02-22T02:30:45.134Z,30.40
2023-02-22T02:33:32.372Z,30.58
2023-02-22T02:36:05.651Z,27.48
2023-02-22T02:38:45.732Z,23.98
2023-02-22T02:41:19.661Z,34.15
2023-02-22T02:44:02.040Z,38.83
2023-02-22T02:46:56.278Z,32.75
2023-02-22T02:49:31.283Z,30.65
2023-02-22T02:52:01.939Z,23.80
2023-02-22T02:54:29.312Z,32.38
2023-02-22T02:56:57.883Z,30.45
2023-02-22T02:59:28.190Z,30.42
2023-02-22T03:02:13.219Z,31.90
2023-02-22T03:05:04.072Z,33.60
2023-02-22T03:07:43.640Z,36.50
2023-02-22T03:10:44.525Z,34.53
2023-02-22T03:13:17.801Z,31.70
2023-02-22T03:15:53.888Z,28.63
2023-02-22T03:18:32.795Z,27.15
2023-02-22T03:21:08.270Z,28.75
2023-02-22T03:24:00.291Z,39.10
2023-02-22T03:26:36.437Z,33.33
2023-02-22T03:29:05.558Z,36.10
2023-02-22T03:31:38.819Z,23.48
2023-02-22T03:34:13.957Z,33.05
2023-02-22T03:36:47.811Z,27.13
2023-02-22T03:39:16.942Z,29.45
2023-02-22T03:41:54.324Z,30.85
2023-02-22T03:44:25.447Z,30.65
2023-02-22T03:46:56.764Z,29.00
2023-02-22T03:49:30.122Z,26.60
2023-02-22T03:51:57.615Z,28.45
2023-02-22T03:54:25.136Z,29.88
2023-02-22T03:56:56.259Z,30.30
2023-02-22T03:59:27.338Z,23.13
2023-02-22T04:01:55.125Z,21.75
2023-02-22T04:04:23.864Z,33.35
2023-02-22T04:06:51.960Z,31.65
2023-02-22T04:09:19.998Z,22.67
2023-02-22T04:11:47.566Z,25.67
2023-02-22T04:14:15.166Z,25.15
2023-02-22T04:16:42.382Z,41.28
2023-02-22T04:19:09.625Z,28.73
2023-02-22T04:21:36.884Z,33.88
2023-02-22T04:24:04.242Z,31.00
2023-02-22T04:26:31.471Z,34.53
2023-02-22T04:28:58.683Z,28.52
2023-02-22T04:31:25.984Z,38.05
2023-02-22T04:33:53.295Z,31.48
2023-02-22T04:36:21.685Z,34.60
2023-02-22T04:38:49.340Z,29.37
2023-02-22T04:41:19.083Z,30.33
2023-02-22T04:43:46.589Z,27.60
2023-02-22T04:46:14.451Z,27.15
2023-02-22T04:48:41.716Z,31.45
2023-02-22T04:51:09.485Z,33.53
2023-02-22T04:53:37.064Z,41.20
2023-02-22T04:56:04.620Z,30.95
2023-02-22T04:58:31.929Z,37.30
2023-02-22T05:00:59.403Z,36.95
2023-02-22T05:03:27.615Z,27.27
2023-02-22T05:05:54.912Z,28.40
2023-02-22T05:08:22.130Z,36.65
2023-02-22T05:10:49.400Z,36.25
2023-02-22T05:13:16.640Z,40.30
2023-02-22T05:15:43.926Z,28.85
2023-02-22T05:18:11.204Z,31.85
2023-02-22T05:20:38.475Z,36.80
2023-02-22T05:23:06.035Z,32.97
2023-02-22T05:25:33.602Z,27.05
2023-02-22T05:28:04.084Z,28.13
2023-02-22T05:30:33.760Z,32.28
2023-02-22T05:33:01.461Z,24.80
2023-02-22T05:35:29.458Z,33.42
2023-02-22T05:37:57.717Z,43.60
2023-02-22T05:40:26.428Z,37.15
2023-02-22T05:42:54.336Z,34.28
2023-02-22T05:45:23.764Z,35.00
2023-02-22T05:47:51.396Z,43.95
2023-02-22T05:50:19.689Z,35.33
2023-02-22T05:52:48.753Z,35.97
2023-02-22T05:55:17.752Z,29.05
2023-02-22T05:57:45.350Z,30.30
2023-02-22T06:00:18.188Z,33.47
2023-02-22T06:02:45.590Z,28.50
2023-02-22T06:05:13.789Z,38.15
2023-02-22T06:07:41.081Z,35.40
2023-02-22T06:10:08.410Z,46.15
2023-02-22T06:12:37.592Z,35.65
2023-02-22T06:15:05.087Z,34.67
2023-02-22T06:17:32.379Z,34.20
2023-02-22T06:19:59.605Z,34.95
2023-02-22T06:22:26.816Z,46.55
2023-02-22T06:24:55.072Z,34.38
2023-02-22T06:27:22.448Z,37.92
2023-02-22T06:29:49.711Z,33.78
2023-02-22T06:32:16.936Z,40.47
2023-02-22T06:34:44.165Z,31.27
2023-02-22T06:37:11.385Z,38.47
2023-02-22T06:39:38.787Z,29.13
2023-02-22T06:42:06.217Z,38.38
2023-02-22T06:44:34.061Z,32.45
2023-02-22T06:47:01.390Z,38.38
2023-02-22T06:49:29.013Z,36.97
2023-02-22T06:51:56.465Z,38.22
2023-02-22T06:54:23.789Z,27.40
2023-02-22T06:56:51.014Z,35.33
2023-02-22T06:59:18.502Z,31.65
2023-02-22T07:01:45.818Z,32.00
2023-02-22T07:04:13.096Z,34.72
2023-02-22T07:06:40.327Z,39.47
2023-02-22T07:09:07.660Z,28.90
2023-02-22T07:11:34.926Z,32.08
2023-02-22T07:14:02.187Z,42.30
2023-02-22T07:16:29.527Z,33.97
2023-02-22T07:18:56.793Z,41.70
2023-02-22T07:21:24.826Z,36.10
2023-02-22T07:23:53.589Z,80.53
2023-02-22T07:26:21.417Z,39.60
2023-02-22T07:28:49.009Z,36.53
2023-02-22T07:31:16.675Z,59.88
2023-02-22T07:33:45.720Z,35.40
2023-02-22T07:36:14.740Z,31.48
2023-02-22T07:38:41.948Z,30.70
2023-02-22T07:41:09.356Z,27.02
2023-02-22T07:43:37.021Z,38.95
2023-02-22T07:46:04.850Z,44.78
2023-02-22T07:48:32.741Z,39.45
2023-02-22T07:51:01.722Z,23.90
2023-02-22T07:53:33.575Z,26.48
2023-02-22T07:56:02.159Z,30.27
2023-02-22T07:58:31.146Z,32.65
2023-02-22T08:00:58.610Z,28.83
2023-02-22T08:03:26.771Z,40.95
2023-02-22T08:05:58.766Z,37.35
2023-02-22T08:08:26.094Z,35.22
2023-02-22T08:10:53.576Z,38.33
2023-02-22T08:13:22.242Z,36.58
2023-02-22T08:15:51.988Z,33.63
2023-02-22T08:18:20.861Z,43.70
2023-02-22T08:20:49.365Z,37.38
2023-02-22T08:23:17.425Z,37.07
2023-02-22T08:25:44.902Z,26.92
2023-02-22T08:28:15.095Z,32.55
2023-02-22T08:30:43.864Z,39.17
2023-02-22T08:33:14.775Z,35.85
2023-02-22T08:35:42.305Z,34.58
2023-02-22T08:38:18.813Z,31.02
2023-02-22T08:40:47.493Z,31.20
2023-02-22T08:43:14.778Z,30.23
2023-02-22T08:45:42.326Z,35.70
2023-02-22T08:48:09.587Z,36.33
2023-02-22T08:50:38.169Z,31.45
2023-02-22T08:53:06.246Z,34.05
2023-02-22T08:55:37.322Z,28.67
2023-02-22T08:58:05.619Z,39.03
2023-02-22T09:00:34.588Z,38.35
2023-02-22T09:05:31.678Z,32.92
2023-02-22T09:07:59.426Z,38.70
2023-02-22T09:10:30.078Z,31.77
2023-02-22T09:12:57.522Z,37.72
2023-02-22T09:15:25.736Z,28.05
2023-02-22T09:17:53.700Z,33.97
2023-02-22T09:20:22.743Z,35.22
2023-02-22T09:22:50.698Z,32.80
2023-02-22T09:25:20.620Z,37.00
2023-02-22T09:27:52.243Z,34.72
2023-02-22T09:30:32.234Z,34.88
2023-02-22T09:33:02.845Z,38.15
2023-02-22T09:35:30.366Z,31.25
2023-02-22T09:37:59.463Z,39.13
2023-02-22T09:40:32.171Z,37.97
2023-02-22T09:43:16.456Z,29.60
2023-02-22T09:46:19.391Z,29.88
2023-02-22T09:49:06.740Z,38.15
2023-02-22T09:51:55.123Z,34.33
2023-02-22T09:54:38.370Z,30.93
2023-02-22T09:57:09.878Z,32.13
2023-02-22T09:59:48.707Z,29.85
2023-02-22T10:02:27.093Z,37.50
2023-02-22T10:05:20.336Z,36.07
2023-02-22T10:07:55.554Z,28.75
2023-02-22T10:10:25.152Z,26.48
2023-02-22T10:13:05.933Z,29.13
2023-02-22T10:16:03.044Z,39.05
2023-02-22T10:18:47.925Z,34.85
2023-02-22T10:21:43.032Z,29.75
2023-02-22T10:24:20.200Z,36.95
2023-02-22T10:26:47.909Z,23.75
2023-02-22T10:29:28.590Z,26.35
2023-02-22T10:32:00.317Z,31.63
2023-02-22T10:34:31.158Z,27.38
2023-02-22T10:37:13.810Z,24.67
2023-02-22T10:39:42.830Z,35.78
2023-02-22T10:42:10.145Z,32.97
2023-02-22T10:44:38.818Z,22.52
2023-02-22T10:47:10.173Z,22.35
2023-02-22T10:49:44.580Z,26.08
2023-02-22T10:52:24.429Z,19.55
2023-02-22T10:54:52.073Z,24.58
2023-02-22T10:57:34.051Z,26.42
2023-02-22T11:00:39.730Z,29.58
2023-02-22T11:03:19.583Z,28.95
2023-02-22T11:05:46.914Z,19.98
2023-02-22T11:08:21.014Z,28.77
2023-02-22T11:10:50.108Z,23.25
2023-02-22T11:13:37.688Z,22.90
2023-02-22T11:16:25.043Z,22.92
2023-02-22T11:19:01.137Z,22.48
2023-02-22T11:21:30.841Z,31.08
2023-02-22T11:24:10.690Z,13.40
2023-02-22T11:26:41.932Z,21.90
2023-02-22T11:29:32.501Z,26.02
2023-02-22T11:32:11.688Z,23.05
2023-02-22T11:37:26.084Z,23.65
2023-02-22T11:40:20.039Z,26.27
2023-02-22T11:42:48.295Z,29.50
2023-02-22T11:45:21.604Z,26.08
2023-02-22T11:47:55.372Z,30.98
2023-02-22T11:50:30.016Z,27.13
2023-02-22T11:53:09.137Z,29.08
2023-02-22T11:55:45.049Z,25.85
2023-02-22T11:58:25.056Z,22.92
2023-02-22T12:01:17.504Z,30.00
2023-02-22T12:04:23.903Z,32.35
2023-02-22T12:07:00.218Z,30.70
2023-02-22T12:09:56.964Z,24.23
2023-02-22T12:12:26.916Z,28.88
2023-02-22T12:15:16.371Z,32.40
2023-02-22T12:18:22.207Z,28.30
2023-02-22T12:21:00.137Z,27.27
2023-02-22T12:23:36.086Z,19.58
2023-02-22T12:26:17.180Z,24.55
2023-02-22T12:28:51.831Z,26.90
2023-02-22T12:31:30.263Z,27.77
2023-02-22T12:34:27.228Z,20.15
2023-02-22T12:37:16.307Z,22.33
2023-02-22T12:40:08.005Z,25.80
2023-02-22T12:42:56.745Z,19.67
2023-02-22T12:45:34.716Z,26.55
2023-02-22T12:48:27.895Z,22.52
2023-02-22T12:51:00.886Z,21.90
2023-02-22T12:53:29.914Z,21.13
2023-02-22T12:56:10.107Z,22.52
2023-02-22T12:58:43.571Z,18.88
2023-02-22T13:01:20.122Z,15.88
2023-02-22T13:03:49.279Z,25.55
2023-02-22T13:06:35.278Z,19.23
2023-02-22T13:09:29.002Z,21.38
2023-02-22T13:12:22.444Z,22.17
2023-02-22T13:15:10.926Z,23.88
2023-02-22T13:18:06.363Z,23.67
2023-02-22T13:20:44.054Z,26.02
2023-02-22T13:23:38.952Z,16.73
2023-02-22T13:26:15.341Z,21.70
2023-02-22T13:28:49.464Z,22.77
2023-02-22T13:31:43.843Z,17.90
2023-02-22T13:34:35.495Z,18.10
2023-02-22T13:37:30.144Z,21.40
2023-02-22T13:40:16.865Z,18.05
2023-02-22T13:43:11.451Z,22.40
2023-02-22T13:46:00.220Z,21.08
2023-02-22T13:48:46.876Z,20.85
2023-02-22T13:51:24.646Z,25.13
2023-02-22T13:53:56.485Z,24.50
2023-02-22T13:56:25.182Z,23.10
2023-02-22T13:58:55.827Z,20.17
2023-02-22T14:01:45.967Z,23.02
2023-02-22T14:04:28.994Z,23.27
2023-02-22T14:07:01.077Z,26.55
2023-02-22T14:09:49.147Z,21.42
2023-02-22T14:12:34.621Z,20.80
2023-02-22T14:15:27.779Z,25.30
2023-02-22T14:18:01.161Z,20.60
2023-02-22T14:20:36.191Z,34.38
2023-02-22T14:23:32.633Z,24.50
2023-02-22T14:26:17.062Z,26.77
2023-02-22T14:28:59.818Z,22.27
2023-02-22T14:31:37.332Z,25.15
2023-02-22T14:34:14.153Z,25.13
2023-02-22T14:37:13.251Z,30.40
2023-02-22T14:42:51.830Z,21.67
2023-02-22T14:45:33.874Z,23.23
2023-02-22T14:48:20.352Z,21.13
2023-02-22T14:50:56.226Z,24.98
2023-02-22T14:53:38.332Z,21.73
2023-02-22T14:56:09.102Z,26.48
2023-02-22T14:59:08.075Z,28.30
2023-02-22T15:01:50.788Z,25.58
2023-02-22T15:04:31.039Z,29.42
2023-02-22T15:07:00.139Z,18.85
2023-02-22T15:09:32.928Z,15.57
2023-02-22T15:12:04.928Z,23.75
2023-02-22T15:14:37.838Z,17.30
2023-02-22T15:17:19.239Z,18.88
2023-02-22T15:19:51.273Z,24.08
2023-02-22T15:22:28.216Z,23.20
2023-02-22T15:25:13.757Z,22.20
2023-02-22T15:27:47.542Z,19.80
2023-02-22T15:30:17.851Z,20.98
2023-02-22T15:33:02.572Z,20.23
2023-02-22T15:35:33.410Z,18.20
2023-02-22T15:38:16.123Z,14.60
2023-02-22T15:41:02.640Z,20.75
2023-02-22T15:43:31.142Z,24.20
2023-02-22T15:45:59.843Z,21.85
2023-02-22T15:48:28.130Z,28.27
2023-02-22T15:51:13.809Z,18.50
2023-02-22T15:53:44.100Z,28.38
2023-02-22T15:56:20.375Z,29.75
2023-02-22T15:58:48.833Z,19.25
2023-02-22T16:01:19.259Z,20.80
2023-02-22T16:03:53.473Z,20.33
2023-02-22T16:06:35.631Z,23.15
2023-02-22T16:09:09.804Z,17.13
2023-02-22T16:11:43.323Z,19.17
2023-02-22T16:14:30.230Z,23.08
2023-02-22T16:17:35.532Z,21.23
2023-02-22T16:20:24.844Z,27.42
2023-02-22T16:25:27.421Z,27.20
2023-02-22T16:28:06.232Z,18.67
2023-02-22T16:30:39.505Z,20.23
2023-02-22T16:33:17.593Z,21.02
2023-02-22T16:35:52.261Z,30.70
2023-02-22T16:38:21.284Z,24.67
2023-02-22T16:40:52.480Z,22.13
2023-02-22T16:43:22.294Z,18.13
2023-02-22T16:45:49.835Z,25.98
2023-02-22T16:48:22.489Z,22.70
2023-02-22T16:50:51.575Z,23.60
2023-02-22T16:53:20.640Z,24.40
2023-02-22T16:55:48.672Z,23.65
2023-02-22T16:58:17.533Z,23.33
2023-02-22T17:00:44.819Z,25.20
2023-02-22T17:03:17.191Z,17.27
2023-02-22T17:05:44.914Z,28.85
2023-02-22T17:08:12.188Z,24.98
2023-02-22T17:10:39.571Z,25.90
2023-02-22T17:13:22.155Z,24.98
2023-02-22T17:15:51.275Z,23.58
2023-02-22T17:18:23.222Z,25.90
2023-02-22T17:20:51.362Z,19.20
2023-02-22T17:23:19.150Z,20.63
2023-02-22T17:25:55.226Z,25.13
2023-02-22T17:28:24.449Z,19.95
2023-02-22T17:33:22.775Z,21.00
2023-02-22T17:35:50.084Z,22.02
2023-02-22T17:38:18.447Z,28.33
2023-02-22T17:40:52.075Z,20.60
2023-02-22T17:43:19.831Z,16.60
2023-02-22T17:45:48.546Z,20.65
2023-02-22T17:48:17.182Z,24.15
2023-02-22T17:50:46.528Z,26.33
2023-02-22T17:53:14.234Z,26.52
2023-02-22T17:55:43.028Z,28.05
2023-02-22T17:58:17.389Z,23.17
2023-02-22T18:00:46.933Z,27.70
2023-02-22T18:03:16.664Z,24.30
2023-02-22T18:05:46.319Z,35.05
2023-02-22T18:08:14.541Z,20.08
2023-02-22T18:10:43.066Z,19.73
2023-02-22T18:13:18.816Z,27.73
2023-02-22T18:15:46.892Z,22.60
2023-02-22T18:18:14.949Z,22.80
2023-02-22T18:20:44.366Z,20.67
2023-02-22T18:23:14.850Z,33.72
2023-02-22T18:25:57.203Z,28.40
2023-02-22T18:31:01.812Z,27.38
2023-02-22T18:33:32.181Z,23.17
2023-02-22T18:36:00.163Z,26.70
2023-02-22T18:38:27.383Z,23.90
2023-02-22T18:41:05.849Z,25.13
2023-02-22T18:43:35.621Z,24.80
2023-02-22T18:46:22.794Z,32.40
2023-02-22T18:48:53.802Z,24.23
2023-02-22T18:51:21.227Z,22.98
2023-02-22T18:53:50.023Z,26.70
2023-02-22T18:56:22.668Z,20.13
2023-02-22T18:59:00.841Z,20.08
2023-02-22T19:01:28.709Z,19.30
2023-02-22T19:03:56.178Z,20.23
2023-02-22T19:06:23.862Z,24.35
2023-02-22T19:08:51.277Z,27.77
2023-02-22T19:11:21.818Z,22.50
2023-02-22T19:13:51.256Z,32.30
2023-02-22T19:18:49.943Z,17.45
2023-02-22T19:21:17.570Z,23.10
2023-02-22T19:23:48.530Z,16.95
2023-02-22T19:26:24.468Z,23.88
2023-02-22T19:28:53.382Z,21.80
2023-02-22T19:31:28.199Z,14.10
2023-02-22T19:33:55.739Z,22.25
2023-02-22T19:36:23.303Z,24.60
2023-02-22T19:38:50.813Z,27.77
2023-02-22T19:41:27.483Z,16.83
2023-02-22T19:43:56.122Z,17.67
2023-02-22T19:46:29.098Z,12.48
2023-02-22T19:48:56.472Z,24.98
2023-02-22T19:51:28.803Z,16.77
2023-02-22T19:54:04.849Z,23.70
2023-02-22T19:56:35.882Z,15.57
2023-02-22T19:59:12.893Z,19.85
2023-02-22T20:01:48.996Z,16.42
2023-02-22T20:04:31.047Z,20.17
2023-02-22T20:07:00.257Z,15.70
2023-02-22T20:09:40.146Z,20.58
2023-02-22T20:12:08.305Z,14.52
2023-02-22T20:14:35.899Z,18.58
2023-02-22T20:17:04.920Z,19.00
2023-02-22T20:19:32.262Z,20.58
2023-02-22T20:22:00.643Z,17.10
2023-02-22T20:24:27.920Z,12.17
2023-02-22T20:26:57.189Z,16.88
2023-02-22T20:31:59.424Z,9.73
2023-02-22T20:34:30.481Z,21.27
2023-02-22T20:36:57.909Z,12.10
2023-02-22T20:39:25.496Z,16.98
2023-02-22T20:41:54.577Z,11.60
2023-02-22T20:44:25.203Z,17.25
2023-02-22T20:46:53.424Z,15.73
2023-02-22T20:49:21.343Z,15.55
2023-02-22T20:51:49.087Z,13.00
2023-02-22T20:54:17.059Z,13.68
2023-02-22T20:56:46.719Z,15.45
2023-02-22T20:59:16.335Z,13.52
2023-02-22T21:01:44.141Z,13.25
2023-02-22T21:04:12.128Z,15.10
2023-02-22T21:06:40.289Z,17.10
2023-02-22T21:09:11.940Z,14.35
2023-02-22T21:11:41.232Z,12.50
2023-02-22T21:16:38.076Z,14.60
2023-02-22T21:19:06.947Z,13.93
2023-02-22T21:21:35.767Z,11.55
2023-02-22T21:24:03.146Z,16.45
2023-02-22T21:26:32.105Z,10.90
2023-02-22T21:29:01.719Z,18.60
2023-02-22T21:31:29.446Z,18.95
2023-02-22T21:33:58.417Z,16.77
2023-02-22T21:36:26.862Z,11.90
2023-02-22T21:38:56.631Z,14.67
2023-02-22T21:41:27.751Z,15.10
2023-02-22T21:43:56.736Z,13.23
2023-02-22T21:46:25.137Z,15.95
2023-02-22T21:48:52.527Z,16.80
2023-02-22T21:51:25.544Z,15.05
2023-02-22T21:53:55.968Z,21.80
2023-02-22T21:56:27.593Z,18.38
2023-02-22T21:59:03.798Z,16.98
2023-02-22T22:01:36.670Z,25.60
2023-02-22T22:04:04.942Z,14.63
2023-02-22T22:06:34.518Z,25.30
2023-02-22T22:09:04.742Z,18.85
2023-02-22T22:11:31.975Z,22.10
2023-02-22T22:14:00.306Z,21.27
2023-02-22T22:16:29.691Z,21.13
2023-02-22T22:18:57.407Z,24.60
2023-02-22T22:21:26.887Z,26.27
2023-02-22T22:23:56.073Z,22.92
2023-02-22T22:28:54.559Z,36.90
2023-02-22T22:31:24.451Z,20.77
2023-02-22T22:33:52.634Z,26.95
2023-02-22T22:36:21.600Z,28.98
2023-02-22T22:38:49.658Z,26.77
2023-02-22T22:41:19.168Z,29.45
2023-02-22T22:43:48.300Z,25.13
2023-02-22T22:46:16.968Z,29.40
2023-02-22T22:48:46.888Z,30.67
2023-02-22T22:51:20.133Z,30.42
2023-02-22T22:53:49.093Z,25.13
2023-02-22T22:56:19.632Z,35.57
2023-02-22T22:58:52.186Z,28.58
2023-02-22T23:01:27.270Z,32.00
2023-02-22T23:04:03.862Z,28.92
2023-02-22T23:06:42.216Z,28.40
2023-02-22T23:09:14.252Z,32.95
2023-02-22T23:11:46.918Z,38.20
2023-02-22T23:14:19.622Z,34.15
2023-02-22T23:16:50.982Z,33.70
2023-02-22T23:19:21.646Z,30.30
2023-02-22T23:21:49.700Z,31.60
2023-02-22T23:24:19.252Z,33.33
2023-02-22T23:26:49.652Z,34.85
2023-02-22T23:29:18.323Z,36.33
2023-02-22T23:31:48.313Z,31.60
2023-02-22T23:34:18.263Z,29.50
2023-02-22T23:36:45.491Z,27.25
2023-02-22T23:39:15.437Z,33.83
2023-02-22T23:41:43.240Z,32.28
2023-02-22T23:44:14.273Z,35.53
2023-02-22T23:46:41.664Z,32.53
2023-02-22T23:49:09.882Z,45.88
2023-02-22T23:51:44.901Z,37.13
2023-02-22T23:54:19.273Z,35.17
2023-02-22T23:56:53.717Z,31.58
2023-02-22T23:59:21.006Z,30.23
